Time;durP1;ratioP1;P1;durP2;ratioP2;P2;SDS_P1;SDS_P2;PMS_P1;PMS_P2;Temp;Humidity;BMP_temperature;BMP_pressure;BME280_temperature;BME280_humidity;BME280_pressure;Samples;Min_cycle;Max_cycle;Signal;HPM_P1;HPM_P2
2022/10/08 00:01:09;;;;;;;7.03;2.08;;;14.00;99.90;;;;;;5024069;27;20108;-60
2022/10/08 00:03:42;;;;;;;6.03;1.98;;;14.00;99.90;;;;;;5082680;27;20041;-61
2022/10/08 00:06:20;;;;;;;4.22;1.85;;;13.90;99.90;;;;;;5021203;28;20042;-58
2022/10/08 00:08:52;;;;;;;4.53;1.92;;;13.90;99.90;;;;;;5056653;27;20786;-60
2022/10/08 00:11:20;;;;;;;5.80;2.00;;;13.90;99.90;;;;;;5021622;28;20381;-59
2022/10/08 00:13:47;;;;;;;4.70;1.80;;;13.90;99.90;;;;;;5086958;27;20025;-58
2022/10/08 00:16:16;;;;;;;5.38;1.50;;;14.00;99.90;;;;;;5021249;28;20030;-60
2022/10/08 00:18:44;;;;;;;4.90;2.08;;;14.00;99.90;;;;;;5086909;27;20027;-59
2022/10/08 00:21:22;;;;;;;5.53;1.80;;;14.00;99.90;;;;;;5020432;28;20493;-60
2022/10/08 00:23:49;;;;;;;6.90;2.08;;;14.00;99.90;;;;;;5086419;27;20600;-58
2022/10/08 00:26:17;;;;;;;6.28;2.20;;;14.10;99.90;;;;;;5021402;28;20034;-59
2022/10/08 00:28:44;;;;;;;7.53;2.10;;;14.10;99.90;;;;;;5078555;27;20023;-59
2022/10/08 00:31:13;;;;;;;5.80;1.92;;;14.10;99.90;;;;;;5026411;27;20469;-59
2022/10/08 00:33:39;;;;;;;7.18;1.92;;;14.10;99.90;;;;;;5068918;27;20015;-60
2022/10/08 00:36:07;;;;;;;6.68;1.92;;;14.20;99.90;;;;;;5067272;27;20023;-59
2022/10/08 00:38:33;;;;;;;6.03;1.98;;;14.20;99.90;;;;;;5089106;27;20750;-60
2022/10/08 00:40:59;;;;;;;5.75;1.90;;;14.20;99.90;;;;;;5096431;27;20019;-59
2022/10/08 00:43:42;;;;;;;6.55;2.30;;;14.20;99.90;;;;;;5101606;27;20048;-60
2022/10/08 00:46:45;;;;;;;7.07;2.60;;;14.20;99.90;;;;;;5095606;27;20058;-60
2022/10/08 00:49:16;;;;;;;6.55;1.90;;;14.20;99.90;;;;;;5072365;27;20037;-60
2022/10/08 00:51:44;;;;;;;11.23;2.58;;;14.20;99.90;;;;;;5113002;27;20028;-61
2022/10/08 00:54:11;;;;;;;5.57;2.10;;;14.20;99.90;;;;;;5084448;27;20024;-59
2022/10/08 00:56:39;;;;;;;8.07;2.40;;;14.20;99.90;;;;;;5100923;27;20475;-59
2022/10/08 00:59:06;;;;;;;6.38;2.50;;;14.10;99.90;;;;;;5096256;27;20029;-59
2022/10/08 01:01:31;;;;;;;5.80;2.65;;;14.10;99.90;;;;;;5036201;27;20022;-60
2022/10/08 01:04:02;;;;;;;7.63;2.10;;;14.10;99.90;;;;;;5036142;27;20054;-60
2022/10/08 01:06:48;;;;;;;5.70;2.15;;;14.00;99.90;;;;;;5065170;27;20086;-61
2022/10/08 01:09:33;;;;;;;6.25;2.78;;;14.00;99.90;;;;;;5051867;27;20136;-59
2022/10/08 01:12:08;;;;;;;7.53;2.35;;;13.90;99.90;;;;;;5039286;27;20060;-59
2022/10/08 01:14:59;;;;;;;4.85;2.30;;;13.90;99.90;;;;;;5048937;27;20102;-59
2022/10/08 01:17:48;;;;;;;6.40;2.30;;;13.80;99.90;;;;;;5038971;27;20037;-59
2022/10/08 01:20:26;;;;;;;5.70;2.05;;;13.80;99.90;;;;;;5069218;27;20042;-59
2022/10/08 01:23:32;;;;;;;4.88;1.92;;;13.70;99.90;;;;;;5028238;27;20600;-58
2022/10/08 01:26:21;;;;;;;5.00;1.83;;;13.70;99.90;;;;;;5086612;27;20061;-59
2022/10/08 01:29:01;;;;;;;5.75;2.20;;;13.70;99.90;;;;;;5021139;28;20078;-59
2022/10/08 01:31:34;;;;;;;5.75;1.92;;;13.70;99.90;;;;;;5059598;27;20026;-59
2022/10/08 01:34:06;;;;;;;7.90;2.35;;;13.70;99.90;;;;;;5125115;27;20031;-59
2022/10/08 01:36:37;;;;;;;6.22;1.88;;;13.60;99.90;;;;;;5060337;27;20019;-57
2022/10/08 01:39:08;;;;;;;6.07;2.33;;;13.60;99.90;;;;;;5124142;27;20019;-60
2022/10/08 01:41:34;;;;;;;6.25;1.83;;;13.60;99.90;;;;;;5059097;27;20503;-59
2022/10/08 01:44:32;;;;;;;4.15;1.70;;;13.60;99.90;;;;;;5124949;28;20023;-59
2022/10/08 01:47:00;;;;;;;4.38;1.83;;;13.60;99.90;;;;;;5059494;27;20051;-59
2022/10/08 01:49:32;;;;;;;1.98;1.30;;;13.60;99.90;;;;;;5123839;27;20023;-59
2022/10/08 01:52:04;;;;;;;3.40;1.58;;;13.60;99.90;;;;;;5058367;27;20030;-59
2022/10/08 01:54:32;;;;;;;3.60;1.52;;;13.60;99.90;;;;;;5124006;27;20047;-58
2022/10/08 01:57:01;;;;;;;2.75;1.38;;;13.60;99.90;;;;;;5058720;27;20029;-58
2022/10/08 01:59:37;;;;;;;7.10;1.63;;;13.60;99.90;;;;;;5123620;27;20625;-59
2022/10/08 02:02:20;;;;;;;4.55;1.63;;;13.60;99.90;;;;;;5058127;27;20587;-59
2022/10/08 02:04:48;;;;;;;4.18;1.50;;;13.60;99.90;;;;;;5123593;27;20047;-57
2022/10/08 02:07:15;;;;;;;4.43;1.48;;;13.60;99.90;;;;;;5056673;27;20041;-59
2022/10/08 02:09:52;;;;;;;4.00;1.30;;;13.60;99.90;;;;;;5083759;28;20145;-58
2022/10/08 02:12:19;;;;;;;3.83;1.60;;;13.60;99.90;;;;;;5082886;27;20027;-59
2022/10/08 02:14:49;;;;;;;3.08;1.70;;;13.60;99.90;;;;;;5021143;27;20026;-58
2022/10/08 02:17:31;;;;;;;4.10;2.10;;;13.70;99.90;;;;;;5047873;27;20117;-60
2022/10/08 02:20:04;;;;;;;5.43;2.50;;;13.70;99.90;;;;;;5009726;28;20079;-58
2022/10/08 02:22:50;;;;;;;4.20;2.63;;;13.70;99.90;;;;;;5074612;27;20023;-57
2022/10/08 02:25:35;;;;;;;5.55;3.22;;;13.70;99.90;;;;;;5003729;28;20618;-57
2022/10/08 02:28:03;;;;;;;9.38;3.40;;;13.70;99.90;;;;;;5086358;27;20395;-57
2022/10/08 02:30:37;;;;;;;5.43;3.15;;;13.60;99.90;;;;;;5023580;28;20493;-58
2022/10/08 02:33:14;;;;;;;7.72;3.78;;;13.60;99.90;;;;;;5089089;27;20052;-59
2022/10/08 02:35:50;;;;;;;7.97;3.60;;;13.70;99.90;;;;;;5023337;28;20060;-59
2022/10/08 02:38:23;;;;;;;4.45;3.08;;;13.60;99.90;;;;;;5088533;27;20031;-58
2022/10/08 02:40:52;;;;;;;5.55;3.10;;;13.70;99.90;;;;;;5022841;28;20168;-54
2022/10/08 02:43:25;;;;;;;6.10;3.40;;;13.60;99.90;;;;;;5085637;27;20039;-57
2022/10/08 02:46:13;;;;;;;4.18;2.67;;;13.60;99.90;;;;;;5003660;28;20048;-58
2022/10/08 02:48:43;;;;;;;5.30;3.10;;;13.60;99.90;;;;;;5086120;27;20131;-54
2022/10/08 02:51:12;;;;;;;6.05;3.42;;;13.60;99.90;;;;;;5023118;28;20078;-55
2022/10/08 02:53:40;;;;;;;3.72;2.70;;;13.60;99.90;;;;;;5085487;27;20390;-55
2022/10/08 02:56:13;;;;;;;3.63;3.13;;;13.60;99.90;;;;;;5024169;27;20365;-58
2022/10/08 02:58:41;;;;;;;5.57;2.92;;;13.60;99.90;;;;;;5078567;27;20759;-56
2022/10/08 03:01:25;;;;;;;5.35;3.35;;;13.60;99.90;;;;;;5031052;27;20624;-58
2022/10/08 03:03:57;;;;;;;4.35;3.00;;;13.60;99.90;;;;;;5078039;27;20477;-57
2022/10/08 03:06:25;;;;;;;6.72;3.15;;;13.60;99.90;;;;;;5026728;27;20029;-58
2022/10/08 03:08:54;;;;;;;5.57;3.15;;;13.60;99.90;;;;;;5066554;27;20618;-55
2022/10/08 03:11:19;;;;;;;5.68;3.58;;;13.60;99.90;;;;;;5126741;27;20039;-59
2022/10/08 03:13:47;;;;;;;5.13;2.85;;;13.60;99.90;;;;;;5089827;27;20047;-59
2022/10/08 03:16:17;;;;;;;5.43;3.00;;;13.60;99.90;;;;;;5098964;27;20587;-53
2022/10/08 03:18:44;;;;;;;4.20;3.08;;;13.60;99.90;;;;;;5098168;27;20384;-59
2022/10/08 03:21:12;;;;;;;6.07;2.80;;;13.60;99.90;;;;;;5090778;27;20139;-56
2022/10/08 03:23:37;;;;;;;4.43;3.10;;;13.60;99.90;;;;;;5108913;27;20458;-58
2022/10/08 03:26:03;;;;;;;5.40;3.05;;;13.60;99.90;;;;;;5078987;27;20050;-57
2022/10/08 03:28:29;;;;;;;3.72;2.70;;;13.60;99.90;;;;;;5118692;27;20026;-58
2022/10/08 03:30:54;;;;;;;6.43;3.63;;;13.60;99.90;;;;;;5067836;27;20050;-57
2022/10/08 03:33:20;;;;;;;6.82;3.10;;;13.60;99.90;;;;;;5118872;27;20039;-55
2022/10/08 03:35:47;;;;;;;5.25;3.13;;;13.60;99.90;;;;;;5068253;27;20023;-58
2022/10/08 03:38:14;;;;;;;5.40;2.97;;;13.60;99.90;;;;;;5125398;27;20085;-58
2022/10/08 03:40:52;;;;;;;6.18;2.97;;;13.60;99.90;;;;;;5061684;27;20098;-56
2022/10/08 03:43:17;;;;;;;5.05;2.53;;;13.60;99.90;;;;;;5126220;27;20035;-58
2022/10/08 03:45:53;;;;;;;7.10;2.70;;;13.60;99.90;;;;;;5059751;27;20034;-59
2022/10/08 03:48:20;;;;;;;5.22;2.95;;;13.60;99.90;;;;;;5126331;27;20037;-55
2022/10/08 03:50:53;;;;;;;4.10;2.65;;;13.60;99.90;;;;;;5060355;27;20025;-57
2022/10/08 03:53:18;;;;;;;;;;;13.60;99.90;;;;;;5126576;27;20027;-57
2022/10/08 03:55:44;;;;;;;5.88;2.40;;;13.60;99.90;;;;;;5063191;27;19912;-56
2022/10/08 03:58:09;;;;;;;4.43;2.17;;;13.50;99.90;;;;;;5123381;27;20084;-58
2022/10/08 04:00:35;;;;;;;4.70;2.55;;;13.50;99.90;;;;;;5076972;27;20033;-56
2022/10/08 04:03:00;;;;;;;3.88;2.33;;;13.50;99.90;;;;;;5110560;27;21988;-54
2022/10/08 04:05:26;;;;;;;5.20;2.75;;;13.50;99.90;;;;;;5089442;27;20018;-58
2022/10/08 04:07:51;;;;;;;4.82;2.60;;;13.50;99.90;;;;;;5096106;27;20045;-52
2022/10/08 04:10:17;;;;;;;5.63;2.55;;;13.50;99.90;;;;;;5099735;27;20102;-59
2022/10/08 04:12:42;;;;;;;5.38;2.60;;;13.50;99.90;;;;;;5082293;27;20485;-58
2022/10/08 04:15:08;;;;;;;5.13;2.22;;;13.50;99.90;;;;;;5117645;27;20034;-58
2022/10/08 04:17:34;;;;;;;5.22;2.33;;;13.40;99.90;;;;;;5068525;27;20046;-55
2022/10/08 04:19:59;;;;;;;4.32;2.67;;;13.40;99.90;;;;;;5117630;27;20043;-55
2022/10/08 04:22:25;;;;;;;5.28;2.50;;;13.40;99.90;;;;;;5066682;27;20138;-57
2022/10/08 04:24:50;;;;;;;5.43;2.30;;;13.40;99.90;;;;;;5124885;27;20059;-57
2022/10/08 04:27:16;;;;;;;5.82;2.72;;;13.30;99.90;;;;;;5060561;27;20038;-58
2022/10/08 04:29:41;;;;;;;5.03;2.53;;;13.30;99.90;;;;;;5125961;27;20023;-59
2022/10/08 04:32:07;;;;;;;4.25;2.90;;;13.40;99.90;;;;;;5059756;27;20025;-56
2022/10/08 04:34:32;;;;;;;3.78;2.08;;;13.30;99.90;;;;;;5124668;27;20027;-54
2022/10/08 04:36:58;;;;;;;5.13;2.53;;;13.30;99.90;;;;;;5068721;27;20040;-59
2022/10/08 04:39:23;;;;;;;3.60;2.40;;;13.30;99.90;;;;;;5116385;27;20030;-54
2022/10/08 04:41:49;;;;;;;5.50;2.80;;;13.40;99.90;;;;;;5081958;27;20029;-57
2022/10/08 04:44:14;;;;;;;4.22;2.58;;;13.30;99.90;;;;;;5102100;27;20027;-59
2022/10/08 04:46:40;;;;;;;5.00;3.10;;;13.30;99.90;;;;;;5095528;27;20144;-59
2022/10/08 04:49:06;;;;;;;6.57;3.20;;;13.30;99.90;;;;;;5088155;27;20048;-60
2022/10/08 04:51:31;;;;;;;5.05;3.00;;;13.20;99.90;;;;;;5109698;27;20031;-58
2022/10/08 04:53:57;;;;;;;5.90;3.13;;;13.20;99.90;;;;;;5075140;27;20026;-55
2022/10/08 04:56:25;;;;;;;5.43;2.70;;;13.20;99.90;;;;;;5116988;27;20053;-58
2022/10/08 04:58:53;;;;;;;5.47;3.05;;;13.20;99.90;;;;;;5066645;27;20029;-59
2022/10/08 05:01:20;;;;;;;9.57;3.60;;;13.20;99.90;;;;;;5116393;27;20035;-58
2022/10/08 05:03:48;;;;;;;5.15;3.20;;;13.20;99.90;;;;;;5066979;27;20592;-58
2022/10/08 05:06:15;;;;;;;6.78;2.95;;;13.20;99.90;;;;;;5123217;27;20038;-59
2022/10/08 05:08:41;;;;;;;4.05;2.92;;;13.30;99.90;;;;;;5059532;27;20049;-57
2022/10/08 05:11:08;;;;;;;7.85;3.70;;;13.30;99.90;;;;;;5032958;27;20489;-51
2022/10/08 05:13:33;;;;;;;8.48;3.92;;;13.30;99.90;;;;;;5085708;27;20023;-57
2022/10/08 05:16:07;;;;;;;6.10;4.00;;;13.30;99.90;;;;;;5020487;28;20033;-57
2022/10/08 05:18:34;;;;;;;8.18;4.47;;;13.20;99.90;;;;;;5085001;27;20142;-57
2022/10/08 05:21:08;;;;;;;7.60;4.65;;;13.20;99.90;;;;;;5001236;28;20481;-57
2022/10/08 05:23:35;;;;;;;7.70;4.50;;;13.20;99.90;;;;;;5036757;27;20464;-57
2022/10/08 05:26:09;;;;;;;7.50;4.18;;;13.20;99.90;;;;;;5119098;27;20070;-60
2022/10/08 05:28:35;;;;;;;4.63;3.80;;;13.20;99.90;;;;;;5073683;27;20116;-59
2022/10/08 05:31:00;;;;;;;5.90;4.18;;;13.20;99.90;;;;;;5110435;27;20102;-58
2022/10/08 05:33:26;;;;;;;7.13;4.00;;;13.20;99.90;;;;;;5086839;27;20021;-57
2022/10/08 05:35:52;;;;;;;6.55;4.05;;;13.20;99.90;;;;;;5097773;27;20130;-58
2022/10/08 05:38:17;;;;;;;6.03;3.72;;;13.20;99.90;;;;;;5099688;27;20014;-56
2022/10/08 05:40:43;;;;;;;5.85;3.88;;;13.20;99.90;;;;;;5084343;27;20091;-57
2022/10/08 05:43:08;;;;;;;4.40;3.60;;;13.20;99.90;;;;;;5113466;27;20023;-58
2022/10/08 05:45:34;;;;;;;5.63;3.97;;;13.20;99.90;;;;;;5069439;27;20025;-58
2022/10/08 05:47:59;;;;;;;5.50;3.85;;;13.30;99.90;;;;;;5116651;27;20854;-57
2022/10/08 05:50:25;;;;;;;7.68;3.65;;;13.30;99.90;;;;;;5064946;28;20046;-58
2022/10/08 05:52:51;;;;;;;5.07;3.38;;;13.30;99.90;;;;;;5122404;28;20623;-58
2022/10/08 05:55:16;;;;;;;3.63;3.30;;;13.30;99.90;;;;;;5060988;28;20073;-59
2022/10/08 05:57:42;;;;;;;6.60;3.40;;;13.20;99.90;;;;;;5125991;27;20024;-60
2022/10/08 06:00:08;;;;;;;5.55;3.63;;;13.20;99.90;;;;;;5062596;27;20070;-60
2022/10/08 06:02:33;;;;;;;4.53;3.40;;;13.30;99.90;;;;;;5128461;27;20478;-54
2022/10/08 06:04:59;;;;;;;5.68;3.17;;;13.20;99.90;;;;;;5067057;27;20049;-57
2022/10/08 06:07:24;;;;;;;6.53;3.33;;;13.30;99.90;;;;;;5122299;27;20042;-57
2022/10/08 06:09:51;;;;;;;3.45;3.00;;;13.20;99.90;;;;;;5114807;27;20030;-58
2022/10/08 06:12:16;;;;;;;6.55;3.80;;;13.30;99.90;;;;;;5104473;27;20392;-58
2022/10/08 06:14:42;;;;;;;5.60;3.78;;;13.30;99.90;;;;;;5066870;27;20028;-58
2022/10/08 06:17:08;;;;;;;7.13;3.78;;;13.30;99.90;;;;;;5045875;27;20044;-59
2022/10/08 06:19:36;;;;;;;5.38;3.42;;;13.30;99.90;;;;;;5037290;27;20078;-59
2022/10/08 06:22:03;;;;;;;5.60;3.60;;;13.30;99.90;;;;;;5006856;27;20022;-59
2022/10/08 06:24:28;;;;;;;4.00;3.15;;;13.30;99.90;;;;;;5016731;27;20018;-59
2022/10/08 06:26:54;;;;;;;4.75;3.15;;;13.30;99.90;;;;;;5020826;27;20108;-59
2022/10/08 06:29:21;;;;;;;6.32;4.20;;;13.30;99.90;;;;;;5028360;27;20082;-57
2022/10/08 06:31:47;;;;;;;6.55;4.03;;;13.20;99.90;;;;;;5098600;27;20023;-57
2022/10/08 06:34:12;;;;;;;7.82;4.50;;;13.20;99.90;;;;;;5039691;27;20441;-59
2022/10/08 06:36:38;;;;;;;6.07;4.15;;;13.20;99.90;;;;;;5079990;27;20478;-54
2022/10/08 06:39:10;;;;;;;5.53;4.20;;;13.20;99.90;;;;;;5036386;27;20435;-57
2022/10/08 06:41:36;;;;;;;5.77;4.57;;;13.20;99.90;;;;;;5071101;27;20109;-59
2022/10/08 06:44:07;;;;;;;6.68;4.57;;;13.20;99.90;;;;;;5033123;27;20132;-58
2022/10/08 06:46:33;;;;;;;6.03;4.45;;;13.20;99.90;;;;;;5031611;27;20049;-58
2022/10/08 06:48:59;;;;;;;6.72;4.78;;;13.10;99.90;;;;;;5034967;27;20023;-58
2022/10/08 06:51:25;;;;;;;6.82;4.35;;;13.10;99.90;;;;;;5076486;27;20470;-59
2022/10/08 06:53:56;;;;;;;6.85;4.50;;;13.10;99.90;;;;;;5031420;27;20026;-59
2022/10/08 06:56:23;;;;;;;5.78;4.10;;;13.10;99.90;;;;;;5066945;27;20156;-56
2022/10/08 06:58:48;;;;;;;5.38;4.43;;;13.10;99.90;;;;;;5041387;27;20880;-59
2022/10/08 07:01:17;;;;;;;6.72;4.03;;;13.00;99.90;;;;;;5035628;27;20025;-59
2022/10/08 07:03:47;;;;;;;5.43;4.00;;;13.00;99.90;;;;;;5029181;27;20072;-57
2022/10/08 07:06:12;;;;;;;5.88;4.10;;;12.90;99.90;;;;;;5045197;27;20043;-58
2022/10/08 07:08:38;;;;;;;5.53;3.72;;;12.90;99.90;;;;;;5062563;27;20021;-56
2022/10/08 07:11:10;;;;;;;6.35;3.70;;;12.80;99.90;;;;;;5083757;27;20043;-59
2022/10/08 07:13:36;;;;;;;6.32;4.00;;;12.80;99.90;;;;;;5073966;27;20055;-55
2022/10/08 07:16:10;;;;;;;5.97;3.95;;;12.80;99.90;;;;;;5028232;27;20023;-51
2022/10/08 07:18:37;;;;;;;7.38;4.20;;;12.80;99.90;;;;;;5041307;27;20086;-55
2022/10/08 07:21:03;;;;;;;7.80;4.30;;;12.80;99.90;;;;;;5022295;27;20881;-57
2022/10/08 07:23:30;;;;;;;6.07;3.85;;;12.80;99.90;;;;;;5033524;27;20033;-52
2022/10/08 07:25:56;;;;;;;6.93;3.95;;;12.80;99.90;;;;;;5012037;28;20054;-57
2022/10/08 07:28:23;;;;;;;5.57;3.58;;;12.80;99.90;;;;;;5081753;27;20075;-57
2022/10/08 07:30:49;;;;;;;6.22;3.53;;;12.80;99.90;;;;;;5002035;28;20125;-55
2022/10/08 07:33:14;;;;;;;7.13;3.17;;;12.80;99.90;;;;;;5031253;27;20048;-57
2022/10/08 07:35:40;;;;;;;7.00;3.70;;;12.90;99.90;;;;;;5036042;27;20076;-53
2022/10/08 07:38:05;;;;;;;5.80;3.60;;;12.90;99.90;;;;;;5046574;27;20057;-57
2022/10/08 07:40:33;;;;;;;6.35;3.38;;;12.90;99.90;;;;;;5054930;27;20397;-52
2022/10/08 07:42:59;;;;;;;7.38;3.70;;;12.90;99.90;;;;;;5043530;27;20076;-56
2022/10/08 07:45:24;;;;;;;3.47;2.67;;;13.00;99.90;;;;;;5051485;27;20555;-55
2022/10/08 07:47:50;;;;;;;4.40;2.75;;;13.00;99.90;;;;;;5041000;27;20046;-53
2022/10/08 07:50:15;;;;;;;5.47;2.88;;;13.10;99.90;;;;;;5047886;27;20033;-56
2022/10/08 07:52:41;;;;;;;6.13;2.50;;;13.10;99.90;;;;;;5037664;27;20081;-52
2022/10/08 07:55:06;;;;;;;3.80;1.98;;;13.10;99.90;;;;;;5045964;27;20029;-54
2022/10/08 07:57:33;;;;;;;6.88;2.53;;;13.10;99.90;;;;;;5027792;27;20078;-55
2022/10/08 07:59:59;;;;;;;3.92;1.70;;;13.20;99.90;;;;;;5040890;27;20113;-56
2022/10/08 08:02:24;;;;;;;4.78;1.90;;;13.20;99.90;;;;;;5028381;27;20029;-53
2022/10/08 08:04:50;;;;;;;4.78;1.80;;;13.20;99.90;;;;;;5041727;27;20397;-55
2022/10/08 08:07:15;;;;;;;5.07;2.38;;;13.30;99.90;;;;;;5021045;28;20061;-54
2022/10/08 08:09:41;;;;;;;3.80;1.40;;;13.30;99.90;;;;;;5028850;27;20053;-52
2022/10/08 08:12:06;;;;;;;4.72;1.40;;;13.30;99.90;;;;;;5000253;28;20033;-53
2022/10/08 08:14:32;;;;;;;5.75;1.50;;;13.40;99.90;;;;;;5069222;27;20123;-55
2022/10/08 08:17:00;;;;;;;3.97;1.30;;;13.40;99.90;;;;;;5009485;27;20034;-56
2022/10/08 08:19:26;;;;;;;5.53;2.08;;;13.50;99.90;;;;;;5057625;27;20023;-57
2022/10/08 08:21:52;;;;;;;4.88;1.40;;;13.50;99.90;;;;;;5012742;27;20026;-58
2022/10/08 08:24:17;;;;;;;3.58;1.00;;;13.50;99.90;;;;;;5028283;27;20060;-55
2022/10/08 08:26:43;;;;;;;5.05;1.17;;;13.50;99.90;;;;;;5037244;27;20060;-56
2022/10/08 08:29:15;;;;;;;3.30;1.10;;;13.60;99.90;;;;;;5051717;27;20502;-53
2022/10/08 08:31:42;;;;;;;3.30;0.95;;;13.60;99.90;;;;;;5049923;27;20025;-56
2022/10/08 08:34:11;;;;;;;5.90;1.30;;;13.60;99.90;;;;;;5043797;27;20051;-56
2022/10/08 08:36:39;;;;;;;4.72;1.30;;;13.60;99.90;;;;;;5060818;27;20110;-55
2022/10/08 08:39:07;;;;;;;3.55;1.40;;;13.70;99.90;;;;;;5034569;27;20029;-58
2022/10/08 08:41:59;;;;;;;5.00;0.95;;;13.70;99.90;;;;;;5071628;27;20033;-52
2022/10/08 08:44:28;;;;;;;5.50;1.20;;;13.70;99.90;;;;;;5047864;27;20031;-57
2022/10/08 08:47:35;;;;;;;5.88;1.30;;;13.70;99.90;;;;;;5083834;27;20046;-51
2022/10/08 08:50:17;;;;;;;4.47;1.05;;;13.80;99.90;;;;;;5086897;27;20025;-53
2022/10/08 08:52:43;;;;;;;5.47;1.00;;;13.90;99.90;;;;;;5111982;27;20046;-53
2022/10/08 08:55:19;;;;;;;6.88;1.30;;;13.90;99.90;;;;;;5086932;27;20061;-54
2022/10/08 08:57:59;;;;;;;4.43;1.55;;;13.90;99.90;;;;;;5038258;27;20464;-54
2022/10/08 09:00:35;;;;;;;4.47;1.05;;;13.90;99.90;;;;;;5062249;27;20022;-55
2022/10/08 09:03:11;;;;;;;4.90;0.85;;;14.00;99.90;;;;;;5108730;27;20038;-56
2022/10/08 09:05:41;;;;;;;6.20;1.45;;;14.00;99.90;;;;;;5082290;27;20041;-53
2022/10/08 09:08:19;;;;;;;4.38;1.00;;;14.10;99.90;;;;;;5104389;27;20879;-52
2022/10/08 09:10:54;;;;;;;3.85;1.30;;;14.10;99.90;;;;;;5094861;27;20043;-55
2022/10/08 09:13:27;;;;;;;7.72;1.45;;;14.10;99.90;;;;;;5036807;27;20615;-51
2022/10/08 09:15:54;;;;;;;5.97;1.13;;;14.20;99.90;;;;;;5057357;27;20023;-55
2022/10/08 09:18:20;;;;;;;5.47;1.08;;;14.20;99.90;;;;;;5042665;27;20200;-55
2022/10/08 09:20:46;;;;;;;4.95;1.60;;;14.30;99.90;;;;;;5045940;27;20664;-56
2022/10/08 09:23:16;;;;;;;6.13;1.10;;;14.30;99.90;;;;;;5056861;27;20014;-56
2022/10/08 09:25:45;;;;;;;5.68;1.15;;;14.40;99.90;;;;;;5036305;27;20026;-58
2022/10/08 09:28:43;;;;;;;4.93;1.30;;;14.40;99.90;;;;;;5065748;27;20042;-57
2022/10/08 09:31:16;;;;;;;5.40;1.10;;;14.50;99.90;;;;;;5048404;27;20026;-55
2022/10/08 09:33:42;;;;;;;3.83;1.10;;;14.70;99.90;;;;;;5052265;27;20029;-55
2022/10/08 09:36:08;;;;;;;6.78;1.48;;;14.80;99.90;;;;;;5039934;27;20025;-56
2022/10/08 09:38:38;;;;;;;3.40;0.93;;;14.90;99.90;;;;;;5065516;27;20025;-58
2022/10/08 09:41:06;;;;;;;6.07;1.38;;;15.00;99.90;;;;;;5029703;28;20591;-51
2022/10/08 09:43:33;;;;;;;4.82;1.13;;;15.10;99.90;;;;;;5073334;27;20030;-56
2022/10/08 09:46:03;;;;;;;5.25;1.20;;;15.20;99.90;;;;;;5028454;28;20022;-56
2022/10/08 09:48:29;;;;;;;5.72;1.10;;;15.30;99.90;;;;;;5078622;27;20036;-53
2022/10/08 09:51:02;;;;;;;5.60;1.88;;;15.30;99.90;;;;;;5027954;28;20109;-55
2022/10/08 09:53:37;;;;;;;3.53;1.13;;;15.30;99.90;;;;;;5078511;27;20029;-54
2022/10/08 09:56:05;;;;;;;7.57;1.73;;;15.30;99.90;;;;;;5027117;28;20881;-54
2022/10/08 09:58:34;;;;;;;5.75;1.27;;;15.30;99.90;;;;;;5074467;28;20037;-53
2022/10/08 10:01:14;;;;;;;4.88;1.25;;;15.30;99.90;;;;;;5020725;28;20037;-49
2022/10/08 10:03:52;;;;;;;6.28;1.48;;;15.30;99.90;;;;;;5073641;27;20389;-55
2022/10/08 10:06:26;;;;;;;4.80;1.42;;;15.10;99.90;;;;;;5022205;28;20029;-55
2022/10/08 10:09:24;;;;;;;3.60;1.23;;;14.90;99.90;;;;;;5075095;28;20025;-57
2022/10/08 10:12:00;;;;;;;2.80;0.95;;;14.80;99.90;;;;;;5010650;28;20020;-58
2022/10/08 10:14:42;;;;;;;3.22;1.00;;;14.60;99.90;;;;;;5077787;28;20060;-57
2022/10/08 10:17:34;;;;;;;3.17;1.00;;;14.60;99.90;;;;;;5027099;28;20021;-59
2022/10/08 10:20:04;;;;;;;4.22;1.00;;;14.50;99.90;;;;;;5073560;28;20027;-59
2022/10/08 10:22:45;;;;;;;3.45;1.02;;;14.50;99.90;;;;;;5111536;27;20061;-58
2022/10/08 10:25:10;;;;;;;5.63;0.82;;;14.50;99.90;;;;;;5079477;28;20055;-56
2022/10/08 10:27:48;;;;;;;3.75;0.90;;;14.50;99.90;;;;;;5113315;28;20123;-58
2022/10/08 10:30:18;;;;;;;2.70;0.98;;;14.70;99.90;;;;;;5075968;28;20114;-57
2022/10/08 10:33:14;;;;;;;3.03;1.15;;;14.80;99.90;;;;;;5116276;27;20027;-57
2022/10/08 10:35:48;;;;;;;6.65;1.10;;;15.00;99.90;;;;;;5087956;27;20535;-57
2022/10/08 10:38:23;;;;;;;4.20;1.10;;;15.10;99.90;;;;;;5102344;27;20039;-55
2022/10/08 10:40:54;;;;;;;3.33;1.13;;;15.10;99.90;;;;;;5086298;28;20111;-55
2022/10/08 10:43:46;;;;;;;3.58;0.90;;;15.00;99.90;;;;;;5105904;27;20027;-57
2022/10/08 10:46:34;;;;;;;5.22;1.00;;;14.90;99.90;;;;;;5099018;27;20146;-54
2022/10/08 10:49:27;;;;;;;1.95;0.80;;;14.90;99.90;;;;;;5087882;27;20029;-57
2022/10/08 10:51:59;;;;;;;5.93;1.00;;;14.80;99.90;;;;;;5097788;27;20084;-56
2022/10/08 10:54:43;;;;;;;2.33;0.85;;;14.70;99.90;;;;;;5076320;27;20034;-55
2022/10/08 10:57:33;;;;;;;4.32;1.27;;;14.60;99.90;;;;;;5125277;27;20031;-57
2022/10/08 11:00:07;;;;;;;6.38;1.45;;;14.50;99.90;;;;;;5060256;27;20556;-57
2022/10/08 11:02:43;;;;;;;4.20;0.95;;;14.30;99.90;;;;;;5127258;27;20030;-57
2022/10/08 11:05:26;;;;;;;1.67;0.73;;;14.30;99.90;;;;;;5061063;27;20041;-57
2022/10/08 11:08:16;;;;;;;3.92;0.85;;;14.20;99.90;;;;;;5126790;27;20070;-56
2022/10/08 11:10:54;;;;;;;3.20;1.02;;;14.20;99.90;;;;;;5097123;27;20031;-56
2022/10/08 11:13:40;;;;;;;3.60;1.13;;;14.20;99.90;;;;;;5126743;27;20102;-54
2022/10/08 11:16:34;;;;;;;3.53;1.00;;;14.20;99.90;;;;;;5068067;27;20035;-57
2022/10/08 11:19:02;;;;;;;1.83;0.73;;;14.30;99.90;;;;;;5120423;27;20091;-57
2022/10/08 11:22:02;;;;;;;3.38;1.10;;;14.30;99.90;;;;;;5068011;27;20019;-49
2022/10/08 11:25:09;;;;;;;3.33;1.10;;;14.40;99.90;;;;;;5118647;27;20022;-54
2022/10/08 11:27:39;;;;;;;6.07;1.10;;;14.50;99.90;;;;;;5035802;28;20040;-59
2022/10/08 11:30:16;;;;;;;4.80;1.13;;;14.60;99.90;;;;;;5036319;28;20022;-59
2022/10/08 11:32:48;;;;;;;3.33;0.98;;;14.60;99.90;;;;;;5070142;27;20386;-57
2022/10/08 11:35:21;;;;;;;2.50;0.90;;;14.80;99.90;;;;;;5099554;27;20014;-58
2022/10/08 11:38:14;;;;;;;5.88;1.60;;;14.90;99.90;;;;;;5092816;27;20113;-58
2022/10/08 11:40:47;;;;;;;6.45;1.23;;;15.00;99.90;;;;;;5089411;27;20017;-54
2022/10/08 11:43:41;;;;;;;5.00;1.08;;;15.00;99.90;;;;;;5103100;27;20474;-56
2022/10/08 11:46:27;;;;;;;5.20;1.05;;;15.00;99.90;;;;;;5053224;27;20025;-58
2022/10/08 11:48:57;;;;;;;5.28;1.20;;;15.00;99.90;;;;;;5124666;27;20031;-56
2022/10/08 11:51:23;;;;;;;5.80;1.08;;;14.90;99.90;;;;;;5071942;27;20021;-55
2022/10/08 11:54:27;;;;;;;2.35;1.00;;;14.90;99.90;;;;;;5068942;27;20090;-57
2022/10/08 11:57:10;;;;;;;4.00;1.08;;;15.00;99.90;;;;;;5086948;27;20035;-53
2022/10/08 11:59:38;;;;;;;5.88;1.38;;;15.00;99.90;;;;;;5022605;28;20030;-59
2022/10/08 12:02:21;;;;;;;3.28;1.02;;;15.10;99.90;;;;;;5087723;27;20039;-56
2022/10/08 12:04:47;;;;;;;;;;;15.20;99.90;;;;;;5022290;28;20087;-58
2022/10/08 12:07:33;;;;;;;3.55;1.20;;;15.20;99.90;;;;;;5086734;27;19915;-59
2022/10/08 12:10:04;;;;;;;7.40;1.30;;;15.40;99.90;;;;;;5025779;27;20043;-55
2022/10/08 12:12:48;;;;;;;3.45;1.05;;;15.40;99.90;;;;;;5086498;27;20047;-52
2022/10/08 12:15:23;;;;;;;3.95;0.80;;;15.50;99.90;;;;;;5021755;28;20164;-55
2022/10/08 12:17:53;;;;;;;3.33;1.00;;;15.60;99.90;;;;;;5086513;27;20064;-56
2022/10/08 12:20:38;;;;;;;4.97;1.27;;;15.70;99.90;;;;;;5021651;28;20233;-56
2022/10/08 12:23:10;;;;;;;3.78;1.27;;;15.70;99.90;;;;;;5086806;27;20029;-53
2022/10/08 12:25:59;;;;;;;;;;;15.70;99.90;;;;;;5022374;28;20711;-56
2022/10/08 12:28:27;;;;;;;3.97;1.20;;;15.70;99.90;;;;;;5063821;27;20334;-56
2022/10/08 12:30:57;;;;;;;4.70;0.80;;;15.50;99.90;;;;;;5125534;27;20023;-56
2022/10/08 12:33:24;;;;;;;5.43;1.50;;;15.40;99.90;;;;;;5059144;27;20132;-55
2022/10/08 12:35:57;;;;;;;4.05;0.90;;;15.40;99.80;;;;;;5126723;27;20023;-57
2022/10/08 12:38:33;;;;;;;4.57;1.10;;;15.30;99.90;;;;;;5058807;27;20026;-57
2022/10/08 12:41:23;;;;;;;6.93;1.50;;;15.40;99.90;;;;;;5125687;27;20039;-54
2022/10/08 12:43:55;;;;;;;5.47;1.10;;;15.50;99.90;;;;;;5060384;27;20021;-56
2022/10/08 12:46:48;;;;;;;7.47;1.30;;;15.60;99.90;;;;;;5125029;27;20062;-53
2022/10/08 12:49:23;;;;;;;4.90;1.08;;;15.70;99.50;;;;;;5076935;27;20474;-56
2022/10/08 12:51:56;;;;;;;4.32;1.48;;;15.80;99.40;;;;;;5024586;28;20025;-58
2022/10/08 12:54:26;;;;;;;4.25;1.10;;;15.80;99.20;;;;;;5075050;27;20026;-53
2022/10/08 12:56:52;;;;;;;5.90;1.30;;;15.80;98.90;;;;;;5022022;28;20026;-56
2022/10/08 12:59:20;;;;;;;6.57;1.13;;;15.80;98.30;;;;;;5066810;27;20031;-57
2022/10/08 13:01:47;;;;;;;4.82;1.40;;;15.90;98.20;;;;;;5027552;28;20678;-55
2022/10/08 13:04:22;;;;;;;4.88;1.13;;;15.90;98.60;;;;;;5051859;27;20120;-55
2022/10/08 13:06:55;;;;;;;3.65;0.90;;;15.90;98.10;;;;;;5028001;28;20041;-54
2022/10/08 13:09:33;;;;;;;6.45;1.00;;;16.00;98.30;;;;;;5091222;27;20114;-55
2022/10/08 13:12:01;;;;;;;3.90;1.30;;;16.00;98.20;;;;;;5121665;27;20047;-58